X  Blizu METAR Podaci o vazduhoplovstvu     LBPD Plovdiv International Airport
Temperatura
66°F Temperatura
57°F Tačka Rose
73% Vlaga



Vetar
30 MPS
48 KM/S
13 M/S
26 Čvorovi



280°
Z
Trenutna situacija

Area Oluje Area Oluje
Vazdušni pritisak 1011.85 (hPa) - 29.88 (inHg)
Vidljivost 6 (Milje) - 9.7 (km)
Aerodrom
Aerodromski kod. LBPD

Lokacija: Plovdiv International Airport
Udaljenost: 14 (mi)

Metar:
LBPD 140800Z AUTO 28026G36KT 9999 VCTS OVC043 //////CB 19/14 Q1012 TEMPO VRB25G40KT 3000 TSRA SCT030CB

Vreme: 14-06-2024 11:00 EEST